sensor_id;sensor_type;location;lat;lon;timestamp;temperature;humidity
21646;DHT22;10984;45.712;4.800;2023-06-26T00:01:23;22.60;1.00
21646;DHT22;10984;45.712;4.800;2023-06-26T00:03:49;22.60;1.00
21646;DHT22;10984;45.712;4.800;2023-06-26T00:06:15;22.50;1.00
21646;DHT22;10984;45.712;4.800;2023-06-26T00:08:40;22.50;1.00
21646;DHT22;10984;45.712;4.800;2023-06-26T00:11:06;22.50;1.00
21646;DHT22;10984;45.712;4.800;2023-06-26T00:13:32;22.50;1.00
21646;DHT22;10984;45.712;4.800;2023-06-26T00:15:57;22.50;1.00
21646;DHT22;10984;45.712;4.800;2023-06-26T00:18:23;22.50;1.00
21646;DHT22;10984;45.712;4.800;2023-06-26T00:20:49;22.40;1.00
21646;DHT22;10984;45.712;4.800;2023-06-26T00:23:17;22.40;1.00
21646;DHT22;10984;45.712;4.800;2023-06-26T00:25:43;22.50;1.00
21646;DHT22;10984;45.712;4.800;2023-06-26T00:28:09;22.50;1.00
21646;DHT22;10984;45.712;4.800;2023-06-26T00:30:35;22.50;1.00
21646;DHT22;10984;45.712;4.800;2023-06-26T00:33:01;22.60;1.00
21646;DHT22;10984;45.712;4.800;2023-06-26T00:35:27;22.60;1.00
21646;DHT22;10984;45.712;4.800;2023-06-26T00:37:52;22.60;1.00
21646;DHT22;10984;45.712;4.800;2023-06-26T00:40:18;22.60;1.00
21646;DHT22;10984;45.712;4.800;2023-06-26T00:42:43;22.60;1.00
21646;DHT22;10984;45.712;4.800;2023-06-26T00:45:09;22.60;1.00
21646;DHT22;10984;45.712;4.800;2023-06-26T00:47:35;22.60;1.00
21646;DHT22;10984;45.712;4.800;2023-06-26T00:50:01;22.50;1.00
21646;DHT22;10984;45.712;4.800;2023-06-26T00:52:27;22.50;1.00
21646;DHT22;10984;45.712;4.800;2023-06-26T00:54:53;22.50;1.00
21646;DHT22;10984;45.712;4.800;2023-06-26T00:57:19;22.50;1.00
21646;DHT22;10984;45.712;4.800;2023-06-26T00:59:45;22.40;1.00
21646;DHT22;10984;45.712;4.800;2023-06-26T01:02:10;22.40;1.00
21646;DHT22;10984;45.712;4.800;2023-06-26T01:04:36;22.40;1.00
21646;DHT22;10984;45.712;4.800;2023-06-26T01:07:03;22.40;1.00
21646;DHT22;10984;45.712;4.800;2023-06-26T01:09:29;22.40;1.00
21646;DHT22;10984;45.712;4.800;2023-06-26T01:11:56;22.40;1.00
21646;DHT22;10984;45.712;4.800;2023-06-26T01:14:22;22.40;1.00
21646;DHT22;10984;45.712;4.800;2023-06-26T01:16:49;22.30;1.00
21646;DHT22;10984;45.712;4.800;2023-06-26T01:19:34;22.30;1.00
21646;DHT22;10984;45.712;4.800;2023-06-26T01:28:13;22.30;1.00
21646;DHT22;10984;45.712;4.800;2023-06-26T01:30:43;22.20;1.00
21646;DHT22;10984;45.712;4.800;2023-06-26T01:33:11;22.20;1.00
21646;DHT22;10984;45.712;4.800;2023-06-26T01:35:37;22.20;1.00
21646;DHT22;10984;45.712;4.800;2023-06-26T01:38:22;22.20;1.00
21646;DHT22;10984;45.712;4.800;2023-06-26T01:40:49;22.10;1.00
21646;DHT22;10984;45.712;4.800;2023-06-26T01:46:04;22.10;1.00
21646;DHT22;10984;45.712;4.800;2023-06-26T01:48:38;22.10;1.00
21646;DHT22;10984;45.712;4.800;2023-06-26T01:51:06;22.10;1.00
21646;DHT22;10984;45.712;4.800;2023-06-26T01:53:36;22.00;1.00
21646;DHT22;10984;45.712;4.800;2023-06-26T01:56:22;22.00;1.00
21646;DHT22;10984;45.712;4.800;2023-06-26T01:58:50;22.00;1.00
21646;DHT22;10984;45.712;4.800;2023-06-26T02:01:20;22.00;1.00
21646;DHT22;10984;45.712;4.800;2023-06-26T02:03:46;21.90;1.00
21646;DHT22;10984;45.712;4.800;2023-06-26T02:06:11;21.90;1.00
21646;DHT22;10984;45.712;4.800;2023-06-26T02:08:37;21.90;1.00
21646;DHT22;10984;45.712;4.800;2023-06-26T02:11:03;21.80;1.00
21646;DHT22;10984;45.712;4.800;2023-06-26T02:13:28;21.80;1.00
21646;DHT22;10984;45.712;4.800;2023-06-26T02:15:54;21.80;1.00
21646;DHT22;10984;45.712;4.800;2023-06-26T02:18:20;21.80;1.00
21646;DHT22;10984;45.712;4.800;2023-06-26T02:20:48;21.70;1.00
21646;DHT22;10984;45.712;4.800;2023-06-26T02:23:13;21.70;1.00
21646;DHT22;10984;45.712;4.800;2023-06-26T02:25:39;21.70;1.00
21646;DHT22;10984;45.712;4.800;2023-06-26T02:28:05;21.70;1.00
21646;DHT22;10984;45.712;4.800;2023-06-26T02:30:31;21.70;1.00
21646;DHT22;10984;45.712;4.800;2023-06-26T02:32:56;21.70;1.00
21646;DHT22;10984;45.712;4.800;2023-06-26T02:35:22;21.70;1.00
21646;DHT22;10984;45.712;4.800;2023-06-26T02:37:48;21.80;1.00
21646;DHT22;10984;45.712;4.800;2023-06-26T02:40:13;21.90;1.00
21646;DHT22;10984;45.712;4.800;2023-06-26T02:42:39;21.90;1.00
21646;DHT22;10984;45.712;4.800;2023-06-26T02:45:05;22.00;1.00
21646;DHT22;10984;45.712;4.800;2023-06-26T02:47:31;22.10;1.00
21646;DHT22;10984;45.712;4.800;2023-06-26T02:49:56;22.10;1.00
21646;DHT22;10984;45.712;4.800;2023-06-26T02:52:22;22.10;1.00
21646;DHT22;10984;45.712;4.800;2023-06-26T02:54:48;22.00;1.00
21646;DHT22;10984;45.712;4.800;2023-06-26T02:57:13;22.00;1.00
21646;DHT22;10984;45.712;4.800;2023-06-26T02:59:40;22.00;1.00
21646;DHT22;10984;45.712;4.800;2023-06-26T03:02:06;22.00;1.00
21646;DHT22;10984;45.712;4.800;2023-06-26T03:04:31;22.00;1.00
21646;DHT22;10984;45.712;4.800;2023-06-26T03:06:57;22.00;1.00
21646;DHT22;10984;45.712;4.800;2023-06-26T03:09:23;22.00;1.00
21646;DHT22;10984;45.712;4.800;2023-06-26T03:11:48;22.00;1.00
21646;DHT22;10984;45.712;4.800;2023-06-26T03:14:14;22.10;1.00
21646;DHT22;10984;45.712;4.800;2023-06-26T03:16:40;22.00;1.00
21646;DHT22;10984;45.712;4.800;2023-06-26T03:19:05;22.00;1.00
21646;DHT22;10984;45.712;4.800;2023-06-26T03:21:32;22.00;1.00
21646;DHT22;10984;45.712;4.800;2023-06-26T03:23:58;22.00;1.00
21646;DHT22;10984;45.712;4.800;2023-06-26T03:26:23;22.00;1.00
21646;DHT22;10984;45.712;4.800;2023-06-26T03:28:53;21.90;1.00
21646;DHT22;10984;45.712;4.800;2023-06-26T03:31:19;22.00;1.00
21646;DHT22;10984;45.712;4.800;2023-06-26T03:33:44;21.90;1.00
21646;DHT22;10984;45.712;4.800;2023-06-26T03:36:10;21.90;1.00
21646;DHT22;10984;45.712;4.800;2023-06-26T03:38:36;21.90;1.00
21646;DHT22;10984;45.712;4.800;2023-06-26T03:41:02;21.90;1.00
21646;DHT22;10984;45.712;4.800;2023-06-26T03:43:28;21.90;1.00
21646;DHT22;10984;45.712;4.800;2023-06-26T03:45:54;21.80;1.00
21646;DHT22;10984;45.712;4.800;2023-06-26T03:48:19;21.80;1.00
21646;DHT22;10984;45.712;4.800;2023-06-26T03:50:45;21.90;1.00
21646;DHT22;10984;45.712;4.800;2023-06-26T03:53:11;21.80;1.00
21646;DHT22;10984;45.712;4.800;2023-06-26T03:55:37;21.80;1.00
21646;DHT22;10984;45.712;4.800;2023-06-26T03:58:04;21.90;1.00
21646;DHT22;10984;45.712;4.800;2023-06-26T04:00:30;21.90;1.00
21646;DHT22;10984;45.712;4.800;2023-06-26T04:02:56;22.00;1.00
21646;DHT22;10984;45.712;4.800;2023-06-26T04:05:22;22.00;1.00
21646;DHT22;10984;45.712;4.800;2023-06-26T04:08:07;22.10;1.00
21646;DHT22;10984;45.712;4.800;2023-06-26T04:10:33;22.10;1.00
21646;DHT22;10984;45.712;4.800;2023-06-26T04:12:59;22.10;1.00
21646;DHT22;10984;45.712;4.800;2023-06-26T04:15:25;22.10;1.00
21646;DHT22;10984;45.712;4.800;2023-06-26T04:17:50;22.10;1.00
21646;DHT22;10984;45.712;4.800;2023-06-26T04:20:16;22.10;1.00
21646;DHT22;10984;45.712;4.800;2023-06-26T04:22:42;22.20;1.00
21646;DHT22;10984;45.712;4.800;2023-06-26T04:25:08;22.20;1.00
21646;DHT22;10984;45.712;4.800;2023-06-26T04:27:33;22.30;1.00
21646;DHT22;10984;45.712;4.800;2023-06-26T04:29:59;22.30;1.00
21646;DHT22;10984;45.712;4.800;2023-06-26T04:32:25;22.40;1.00
21646;DHT22;10984;45.712;4.800;2023-06-26T04:34:50;22.40;1.00
21646;DHT22;10984;45.712;4.800;2023-06-26T04:37:16;22.60;1.00
21646;DHT22;10984;45.712;4.800;2023-06-26T04:39:42;22.90;1.00
21646;DHT22;10984;45.712;4.800;2023-06-26T04:42:08;23.30;1.00
21646;DHT22;10984;45.712;4.800;2023-06-26T04:44:34;23.80;1.00
21646;DHT22;10984;45.712;4.800;2023-06-26T04:47:00;24.20;1.00
21646;DHT22;10984;45.712;4.800;2023-06-26T04:49:26;24.50;1.00
21646;DHT22;10984;45.712;4.800;2023-06-26T04:51:54;24.70;1.00
21646;DHT22;10984;45.712;4.800;2023-06-26T04:54:19;25.00;1.00
21646;DHT22;10984;45.712;4.800;2023-06-26T04:56:45;25.50;1.00
21646;DHT22;10984;45.712;4.800;2023-06-26T04:59:12;26.10;1.00
21646;DHT22;10984;45.712;4.800;2023-06-26T05:01:39;26.60;1.00
21646;DHT22;10984;45.712;4.800;2023-06-26T05:04:05;26.90;1.00
21646;DHT22;10984;45.712;4.800;2023-06-26T05:06:30;27.00;1.00
21646;DHT22;10984;45.712;4.800;2023-06-26T05:08:56;27.20;1.00
21646;DHT22;10984;45.712;4.800;2023-06-26T05:11:22;27.50;1.00
21646;DHT22;10984;45.712;4.800;2023-06-26T05:13:49;27.70;1.00
21646;DHT22;10984;45.712;4.800;2023-06-26T05:16:14;27.80;1.00
21646;DHT22;10984;45.712;4.800;2023-06-26T05:18:40;27.90;1.00
21646;DHT22;10984;45.712;4.800;2023-06-26T05:21:06;27.80;1.00
21646;DHT22;10984;45.712;4.800;2023-06-26T05:23:33;28.60;1.00
21646;DHT22;10984;45.712;4.800;2023-06-26T05:26:00;29.50;99.90
21646;DHT22;10984;45.712;4.800;2023-06-26T05:28:25;30.00;99.90
21646;DHT22;10984;45.712;4.800;2023-06-26T05:30:53;30.30;99.90
21646;DHT22;10984;45.712;4.800;2023-06-26T05:33:22;30.60;99.90
21646;DHT22;10984;45.712;4.800;2023-06-26T05:35:49;30.30;99.90
21646;DHT22;10984;45.712;4.800;2023-06-26T05:38:17;30.70;99.90
21646;DHT22;10984;45.712;4.800;2023-06-26T05:40:43;31.00;99.90
21646;DHT22;10984;45.712;4.800;2023-06-26T05:43:09;31.00;99.90
21646;DHT22;10984;45.712;4.800;2023-06-26T05:45:34;30.90;99.90
21646;DHT22;10984;45.712;4.800;2023-06-26T05:48:00;31.20;99.90
21646;DHT22;10984;45.712;4.800;2023-06-26T05:50:27;31.40;99.90
21646;DHT22;10984;45.712;4.800;2023-06-26T05:52:53;31.40;92.80
21646;DHT22;10984;45.712;4.800;2023-06-26T05:55:19;31.70;68.70
21646;DHT22;10984;45.712;4.800;2023-06-26T05:57:46;31.90;20.00
21646;DHT22;10984;45.712;4.800;2023-06-26T06:00:12;32.20;1.00
21646;DHT22;10984;45.712;4.800;2023-06-26T06:02:39;31.50;1.00
21646;DHT22;10984;45.712;4.800;2023-06-26T06:05:05;30.90;1.00
21646;DHT22;10984;45.712;4.800;2023-06-26T06:07:34;30.70;1.00
21646;DHT22;10984;45.712;4.800;2023-06-26T06:10:01;30.50;1.00
21646;DHT22;10984;45.712;4.800;2023-06-26T06:12:27;30.40;1.00
21646;DHT22;10984;45.712;4.800;2023-06-26T06:14:53;30.00;1.00
21646;DHT22;10984;45.712;4.800;2023-06-26T06:17:20;29.50;22.80
21646;DHT22;10984;45.712;4.800;2023-06-26T06:19:45;29.30;38.30
21646;DHT22;10984;45.712;4.800;2023-06-26T06:22:11;29.20;69.10
21646;DHT22;10984;45.712;4.800;2023-06-26T06:24:37;29.10;76.80
21646;DHT22;10984;45.712;4.800;2023-06-26T06:27:03;29.00;99.90
21646;DHT22;10984;45.712;4.800;2023-06-26T06:29:29;29.00;96.60
21646;DHT22;10984;45.712;4.800;2023-06-26T06:31:54;28.90;99.90
21646;DHT22;10984;45.712;4.800;2023-06-26T06:34:20;28.90;99.90
21646;DHT22;10984;45.712;4.800;2023-06-26T06:36:46;29.10;99.90
21646;DHT22;10984;45.712;4.800;2023-06-26T06:39:12;29.30;99.90
21646;DHT22;10984;45.712;4.800;2023-06-26T06:41:38;29.10;99.90
21646;DHT22;10984;45.712;4.800;2023-06-26T06:44:03;29.20;99.90
21646;DHT22;10984;45.712;4.800;2023-06-26T06:46:29;28.80;99.90
21646;DHT22;10984;45.712;4.800;2023-06-26T06:48:55;28.10;99.90
21646;DHT22;10984;45.712;4.800;2023-06-26T06:51:22;27.90;99.90
21646;DHT22;10984;45.712;4.800;2023-06-26T06:53:47;27.70;99.90
21646;DHT22;10984;45.712;4.800;2023-06-26T06:56:13;27.70;99.90
21646;DHT22;10984;45.712;4.800;2023-06-26T06:58:39;27.80;99.90
21646;DHT22;10984;45.712;4.800;2023-06-26T07:01:08;27.70;99.90
21646;DHT22;10984;45.712;4.800;2023-06-26T07:03:34;27.50;99.90
21646;DHT22;10984;45.712;4.800;2023-06-26T07:06:00;27.60;99.90
21646;DHT22;10984;45.712;4.800;2023-06-26T07:08:26;27.70;99.90
21646;DHT22;10984;45.712;4.800;2023-06-26T07:10:52;27.80;99.90
21646;DHT22;10984;45.712;4.800;2023-06-26T07:13:18;27.70;99.90
21646;DHT22;10984;45.712;4.800;2023-06-26T07:15:45;27.50;99.90
21646;DHT22;10984;45.712;4.800;2023-06-26T07:18:10;27.70;99.90
21646;DHT22;10984;45.712;4.800;2023-06-26T07:20:36;27.60;99.90
21646;DHT22;10984;45.712;4.800;2023-06-26T07:23:02;27.60;99.90
21646;DHT22;10984;45.712;4.800;2023-06-26T07:25:27;27.80;99.90
21646;DHT22;10984;45.712;4.800;2023-06-26T07:27:53;27.90;99.90
21646;DHT22;10984;45.712;4.800;2023-06-26T07:30:18;27.90;99.90
21646;DHT22;10984;45.712;4.800;2023-06-26T07:32:45;27.90;99.90
21646;DHT22;10984;45.712;4.800;2023-06-26T07:35:11;27.80;99.90
21646;DHT22;10984;45.712;4.800;2023-06-26T07:37:36;27.70;99.90
21646;DHT22;10984;45.712;4.800;2023-06-26T07:40:02;27.80;99.90
21646;DHT22;10984;45.712;4.800;2023-06-26T07:42:29;28.10;99.90
21646;DHT22;10984;45.712;4.800;2023-06-26T07:44:54;28.50;99.90
21646;DHT22;10984;45.712;4.800;2023-06-26T07:47:20;28.90;99.90
21646;DHT22;10984;45.712;4.800;2023-06-26T07:49:46;29.20;99.90
21646;DHT22;10984;45.712;4.800;2023-06-26T07:52:11;28.90;99.90
21646;DHT22;10984;45.712;4.800;2023-06-26T07:54:37;28.90;99.90
21646;DHT22;10984;45.712;4.800;2023-06-26T07:57:04;28.60;99.90
21646;DHT22;10984;45.712;4.800;2023-06-26T07:59:49;28.60;99.90
21646;DHT22;10984;45.712;4.800;2023-06-26T08:02:15;28.30;99.90
21646;DHT22;10984;45.712;4.800;2023-06-26T08:04:41;28.00;99.90
21646;DHT22;10984;45.712;4.800;2023-06-26T08:07:06;28.00;99.90
21646;DHT22;10984;45.712;4.800;2023-06-26T08:09:32;28.10;99.90
21646;DHT22;10984;45.712;4.800;2023-06-26T08:11:58;28.10;99.90
21646;DHT22;10984;45.712;4.800;2023-06-26T08:14:24;27.90;99.90
21646;DHT22;10984;45.712;4.800;2023-06-26T08:16:50;27.90;99.90
21646;DHT22;10984;45.712;4.800;2023-06-26T08:19:17;27.80;99.90
21646;DHT22;10984;45.712;4.800;2023-06-26T08:21:43;27.70;99.90
21646;DHT22;10984;45.712;4.800;2023-06-26T08:24:10;27.80;99.90
21646;DHT22;10984;45.712;4.800;2023-06-26T08:26:37;27.70;99.90
21646;DHT22;10984;45.712;4.800;2023-06-26T08:29:03;27.70;99.90
21646;DHT22;10984;45.712;4.800;2023-06-26T08:34:17;27.70;99.90
21646;DHT22;10984;45.712;4.800;2023-06-26T08:36:43;27.80;99.90
21646;DHT22;10984;45.712;4.800;2023-06-26T08:39:10;28.00;99.90
21646;DHT22;10984;45.712;4.800;2023-06-26T08:41:36;28.10;99.90
21646;DHT22;10984;45.712;4.800;2023-06-26T08:44:02;28.10;99.90
21646;DHT22;10984;45.712;4.800;2023-06-26T08:46:28;28.00;99.90
21646;DHT22;10984;45.712;4.800;2023-06-26T08:49:14;28.10;99.90
21646;DHT22;10984;45.712;4.800;2023-06-26T08:51:43;28.10;99.90
21646;DHT22;10984;45.712;4.800;2023-06-26T08:54:12;28.10;99.90
21646;DHT22;10984;45.712;4.800;2023-06-26T08:56:42;28.10;99.90
21646;DHT22;10984;45.712;4.800;2023-06-26T08:59:10;27.90;99.90
21646;DHT22;10984;45.712;4.800;2023-06-26T09:01:54;27.80;99.90
21646;DHT22;10984;45.712;4.800;2023-06-26T09:04:20;27.60;99.90
21646;DHT22;10984;45.712;4.800;2023-06-26T09:06:45;27.70;99.90
21646;DHT22;10984;45.712;4.800;2023-06-26T09:09:11;27.80;99.90
21646;DHT22;10984;45.712;4.800;2023-06-26T09:11:36;27.90;99.90
21646;DHT22;10984;45.712;4.800;2023-06-26T09:14:02;28.10;99.90
21646;DHT22;10984;45.712;4.800;2023-06-26T09:16:31;28.00;99.90
21646;DHT22;10984;45.712;4.800;2023-06-26T09:18:57;28.00;99.90
21646;DHT22;10984;45.712;4.800;2023-06-26T09:21:23;28.00;99.90
21646;DHT22;10984;45.712;4.800;2023-06-26T09:23:50;28.00;99.90
21646;DHT22;10984;45.712;4.800;2023-06-26T09:26:17;28.10;99.90
21646;DHT22;10984;45.712;4.800;2023-06-26T09:28:43;28.20;99.90
21646;DHT22;10984;45.712;4.800;2023-06-26T09:31:09;28.20;99.90
21646;DHT22;10984;45.712;4.800;2023-06-26T09:33:37;28.30;99.90
21646;DHT22;10984;45.712;4.800;2023-06-26T09:36:21;28.20;99.90
21646;DHT22;10984;45.712;4.800;2023-06-26T09:38:47;27.90;99.90
21646;DHT22;10984;45.712;4.800;2023-06-26T09:41:17;28.00;99.90
21646;DHT22;10984;45.712;4.800;2023-06-26T09:44:02;27.90;99.90
21646;DHT22;10984;45.712;4.800;2023-06-26T09:46:29;27.90;99.90
21646;DHT22;10984;45.712;4.800;2023-06-26T09:49:14;28.00;99.90
21646;DHT22;10984;45.712;4.800;2023-06-26T09:51:41;27.90;99.90
21646;DHT22;10984;45.712;4.800;2023-06-26T09:54:08;27.80;99.90
21646;DHT22;10984;45.712;4.800;2023-06-26T09:56:34;27.80;99.90
21646;DHT22;10984;45.712;4.800;2023-06-26T09:59:04;27.80;99.90
21646;DHT22;10984;45.712;4.800;2023-06-26T10:01:31;27.90;99.90
21646;DHT22;10984;45.712;4.800;2023-06-26T10:03:57;28.00;99.90
21646;DHT22;10984;45.712;4.800;2023-06-26T10:06:46;28.10;99.90
21646;DHT22;10984;45.712;4.800;2023-06-26T10:09:13;28.10;99.90
21646;DHT22;10984;45.712;4.800;2023-06-26T10:14:07;27.90;99.90
21646;DHT22;10984;45.712;4.800;2023-06-26T10:16:35;28.00;99.90
21646;DHT22;10984;45.712;4.800;2023-06-26T10:19:05;28.10;99.90
21646;DHT22;10984;45.712;4.800;2023-06-26T10:21:33;28.10;99.90
21646;DHT22;10984;45.712;4.800;2023-06-26T10:24:00;28.10;99.90
21646;DHT22;10984;45.712;4.800;2023-06-26T10:26:26;27.90;99.90
21646;DHT22;10984;45.712;4.800;2023-06-26T10:28:55;28.00;99.90
21646;DHT22;10984;45.712;4.800;2023-06-26T10:31:24;28.10;99.90
21646;DHT22;10984;45.712;4.800;2023-06-26T10:33:52;28.30;99.90
21646;DHT22;10984;45.712;4.800;2023-06-26T10:36:28;28.40;99.90
21646;DHT22;10984;45.712;4.800;2023-06-26T10:39:12;28.40;99.90
21646;DHT22;10984;45.712;4.800;2023-06-26T10:41:41;28.40;99.90
21646;DHT22;10984;45.712;4.800;2023-06-26T10:44:09;28.40;99.90
21646;DHT22;10984;45.712;4.800;2023-06-26T10:46:55;28.50;99.90
21646;DHT22;10984;45.712;4.800;2023-06-26T10:49:26;28.40;99.90
21646;DHT22;10984;45.712;4.800;2023-06-26T10:51:53;28.40;99.90
21646;DHT22;10984;45.712;4.800;2023-06-26T10:54:21;28.40;99.90
21646;DHT22;10984;45.712;4.800;2023-06-26T10:56:49;28.40;99.90
21646;DHT22;10984;45.712;4.800;2023-06-26T11:02:01;28.20;99.90
21646;DHT22;10984;45.712;4.800;2023-06-26T11:04:47;27.90;99.90
21646;DHT22;10984;45.712;4.800;2023-06-26T11:07:33;27.80;99.90
21646;DHT22;10984;45.712;4.800;2023-06-26T11:12:45;27.80;99.90
21646;DHT22;10984;45.712;4.800;2023-06-26T11:17:58;27.40;99.90
21646;DHT22;10984;45.712;4.800;2023-06-26T11:20:24;27.30;99.90
21646;DHT22;10984;45.712;4.800;2023-06-26T11:22:52;27.30;99.90
21646;DHT22;10984;45.712;4.800;2023-06-26T11:25:19;27.30;99.90
21646;DHT22;10984;45.712;4.800;2023-06-26T11:27:45;27.30;99.90
21646;DHT22;10984;45.712;4.800;2023-06-26T11:30:22;27.20;99.90
21646;DHT22;10984;45.712;4.800;2023-06-26T11:32:49;27.30;99.90
21646;DHT22;10984;45.712;4.800;2023-06-26T11:35:34;27.50;99.90
21646;DHT22;10984;45.712;4.800;2023-06-26T11:38:01;27.60;99.90
21646;DHT22;10984;45.712;4.800;2023-06-26T11:40:31;27.60;99.90
21646;DHT22;10984;45.712;4.800;2023-06-26T11:42:59;27.70;99.90
21646;DHT22;10984;45.712;4.800;2023-06-26T11:45:27;27.70;99.90
21646;DHT22;10984;45.712;4.800;2023-06-26T11:47:55;27.70;99.90
21646;DHT22;10984;45.712;4.800;2023-06-26T11:50:21;27.80;99.90
21646;DHT22;10984;45.712;4.800;2023-06-26T11:52:53;27.70;99.90
21646;DHT22;10984;45.712;4.800;2023-06-26T11:55:20;27.60;99.90
21646;DHT22;10984;45.712;4.800;2023-06-26T11:58:04;27.70;99.90
21646;DHT22;10984;45.712;4.800;2023-06-26T12:00:30;27.70;99.90
21646;DHT22;10984;45.712;4.800;2023-06-26T12:02:57;27.80;99.90
21646;DHT22;10984;45.712;4.800;2023-06-26T12:05:24;27.80;99.90
21646;DHT22;10984;45.712;4.800;2023-06-26T12:07:50;27.90;99.90
21646;DHT22;10984;45.712;4.800;2023-06-26T12:10:17;27.80;99.90
21646;DHT22;10984;45.712;4.800;2023-06-26T12:12:45;27.60;99.90
21646;DHT22;10984;45.712;4.800;2023-06-26T12:15:14;27.70;99.90
21646;DHT22;10984;45.712;4.800;2023-06-26T12:17:40;27.70;99.90
21646;DHT22;10984;45.712;4.800;2023-06-26T12:20:16;27.70;99.90
21646;DHT22;10984;45.712;4.800;2023-06-26T12:22:43;27.80;99.90
21646;DHT22;10984;45.712;4.800;2023-06-26T12:25:10;27.70;99.90
21646;DHT22;10984;45.712;4.800;2023-06-26T12:27:36;27.60;99.90
21646;DHT22;10984;45.712;4.800;2023-06-26T12:30:05;27.70;99.90
21646;DHT22;10984;45.712;4.800;2023-06-26T12:32:31;27.80;99.90
21646;DHT22;10984;45.712;4.800;2023-06-26T12:34:57;27.80;99.90
21646;DHT22;10984;45.712;4.800;2023-06-26T12:37:24;28.00;99.90
21646;DHT22;10984;45.712;4.800;2023-06-26T12:42:21;28.00;99.90
21646;DHT22;10984;45.712;4.800;2023-06-26T12:44:47;28.10;99.90
21646;DHT22;10984;45.712;4.800;2023-06-26T12:49:59;28.10;99.90
21646;DHT22;10984;45.712;4.800;2023-06-26T12:52:30;28.10;99.90
21646;DHT22;10984;45.712;4.800;2023-06-26T12:54:56;28.10;99.90
21646;DHT22;10984;45.712;4.800;2023-06-26T12:57:22;28.00;99.90
21646;DHT22;10984;45.712;4.800;2023-06-26T12:59:49;28.10;99.90
21646;DHT22;10984;45.712;4.800;2023-06-26T13:02:14;28.20;99.90
21646;DHT22;10984;45.712;4.800;2023-06-26T13:04:40;28.30;99.90
21646;DHT22;10984;45.712;4.800;2023-06-26T13:07:08;28.30;99.90
21646;DHT22;10984;45.712;4.800;2023-06-26T13:09:34;28.30;99.90
21646;DHT22;10984;45.712;4.800;2023-06-26T13:12:01;28.30;99.90
21646;DHT22;10984;45.712;4.800;2023-06-26T13:14:27;28.30;99.90
21646;DHT22;10984;45.712;4.800;2023-06-26T13:16:52;28.30;99.90
21646;DHT22;10984;45.712;4.800;2023-06-26T13:19:18;28.30;99.90
21646;DHT22;10984;45.712;4.800;2023-06-26T13:21:44;28.30;99.90
21646;DHT22;10984;45.712;4.800;2023-06-26T13:24:09;28.40;99.90
21646;DHT22;10984;45.712;4.800;2023-06-26T13:26:35;28.40;99.90
21646;DHT22;10984;45.712;4.800;2023-06-26T13:29:01;28.40;98.90
21646;DHT22;10984;45.712;4.800;2023-06-26T13:31:27;28.40;92.90
21646;DHT22;10984;45.712;4.800;2023-06-26T13:33:52;28.50;95.60
21646;DHT22;10984;45.712;4.800;2023-06-26T13:36:19;28.60;44.10
21646;DHT22;10984;45.712;4.800;2023-06-26T13:38:45;28.50;29.10
21646;DHT22;10984;45.712;4.800;2023-06-26T13:41:11;28.60;26.50
21646;DHT22;10984;45.712;4.800;2023-06-26T13:43:37;28.50;1.00
21646;DHT22;10984;45.712;4.800;2023-06-26T13:46:03;28.50;38.20
21646;DHT22;10984;45.712;4.800;2023-06-26T13:48:29;28.50;1.00
21646;DHT22;10984;45.712;4.800;2023-06-26T13:50:55;28.50;1.00
21646;DHT22;10984;45.712;4.800;2023-06-26T13:53:22;28.60;1.00
21646;DHT22;10984;45.712;4.800;2023-06-26T13:55:48;28.60;1.00
21646;DHT22;10984;45.712;4.800;2023-06-26T13:58:13;28.60;13.00
21646;DHT22;10984;45.712;4.800;2023-06-26T14:00:39;28.50;1.00
21646;DHT22;10984;45.712;4.800;2023-06-26T14:03:06;28.60;1.00
21646;DHT22;10984;45.712;4.800;2023-06-26T14:05:33;28.60;1.00
21646;DHT22;10984;45.712;4.800;2023-06-26T14:07:59;28.60;1.00
21646;DHT22;10984;45.712;4.800;2023-06-26T14:10:24;28.60;1.00
21646;DHT22;10984;45.712;4.800;2023-06-26T14:12:50;28.40;1.00
21646;DHT22;10984;45.712;4.800;2023-06-26T14:15:16;28.40;1.00
21646;DHT22;10984;45.712;4.800;2023-06-26T14:17:41;28.40;1.00
21646;DHT22;10984;45.712;4.800;2023-06-26T14:20:08;28.50;1.00
21646;DHT22;10984;45.712;4.800;2023-06-26T14:22:52;28.50;1.00
21646;DHT22;10984;45.712;4.800;2023-06-26T14:25:18;28.50;1.00
21646;DHT22;10984;45.712;4.800;2023-06-26T14:27:44;28.60;1.00
21646;DHT22;10984;45.712;4.800;2023-06-26T14:30:10;28.60;1.00
21646;DHT22;10984;45.712;4.800;2023-06-26T14:32:35;28.70;1.00
21646;DHT22;10984;45.712;4.800;2023-06-26T14:35:02;28.70;1.00
21646;DHT22;10984;45.712;4.800;2023-06-26T14:37:29;28.80;1.00
21646;DHT22;10984;45.712;4.800;2023-06-26T14:39:55;28.70;1.00
21646;DHT22;10984;45.712;4.800;2023-06-26T14:42:21;28.70;1.00
21646;DHT22;10984;45.712;4.800;2023-06-26T14:44:46;28.80;1.00
21646;DHT22;10984;45.712;4.800;2023-06-26T14:47:16;28.80;1.00
21646;DHT22;10984;45.712;4.800;2023-06-26T14:49:42;28.90;1.00
21646;DHT22;10984;45.712;4.800;2023-06-26T14:52:08;28.90;1.00
21646;DHT22;10984;45.712;4.800;2023-06-26T14:54:34;29.00;1.00
21646;DHT22;10984;45.712;4.800;2023-06-26T14:57:02;29.00;1.00
21646;DHT22;10984;45.712;4.800;2023-06-26T14:59:28;29.10;1.00
21646;DHT22;10984;45.712;4.800;2023-06-26T15:01:54;29.10;1.00
21646;DHT22;10984;45.712;4.800;2023-06-26T15:04:20;29.20;1.00
21646;DHT22;10984;45.712;4.800;2023-06-26T15:06:45;29.10;1.00
21646;DHT22;10984;45.712;4.800;2023-06-26T15:09:11;29.00;1.00
21646;DHT22;10984;45.712;4.800;2023-06-26T15:11:36;29.00;1.00
21646;DHT22;10984;45.712;4.800;2023-06-26T15:14:02;29.00;1.00
21646;DHT22;10984;45.712;4.800;2023-06-26T15:16:28;28.90;1.00
21646;DHT22;10984;45.712;4.800;2023-06-26T15:18:53;28.90;1.00
21646;DHT22;10984;45.712;4.800;2023-06-26T15:21:19;28.90;1.00
21646;DHT22;10984;45.712;4.800;2023-06-26T15:23:46;29.00;1.00
21646;DHT22;10984;45.712;4.800;2023-06-26T15:26:12;29.10;1.00
21646;DHT22;10984;45.712;4.800;2023-06-26T15:28:39;28.90;1.00
21646;DHT22;10984;45.712;4.800;2023-06-26T15:31:04;29.00;1.00
21646;DHT22;10984;45.712;4.800;2023-06-26T15:33:30;29.10;1.00
21646;DHT22;10984;45.712;4.800;2023-06-26T15:35:56;29.10;1.00
21646;DHT22;10984;45.712;4.800;2023-06-26T15:38:21;29.20;1.00
21646;DHT22;10984;45.712;4.800;2023-06-26T15:40:47;29.20;1.00
21646;DHT22;10984;45.712;4.800;2023-06-26T15:43:13;29.10;1.00
21646;DHT22;10984;45.712;4.800;2023-06-26T15:45:39;29.10;1.00
21646;DHT22;10984;45.712;4.800;2023-06-26T15:48:05;29.10;1.00
21646;DHT22;10984;45.712;4.800;2023-06-26T15:50:30;29.00;1.00
21646;DHT22;10984;45.712;4.800;2023-06-26T15:52:56;28.90;1.00
21646;DHT22;10984;45.712;4.800;2023-06-26T15:55:22;28.80;1.00
21646;DHT22;10984;45.712;4.800;2023-06-26T15:57:47;28.70;1.00
21646;DHT22;10984;45.712;4.800;2023-06-26T16:00:13;28.60;1.00
21646;DHT22;10984;45.712;4.800;2023-06-26T16:02:40;28.60;1.00
21646;DHT22;10984;45.712;4.800;2023-06-26T16:05:06;28.50;1.00